Alkiviadis — V7JP4 — position and weather

sailwx.info

Track history (hours):
 
Tides and Currents Weather Stations Pressure Air Temp Water Temp Dewpoint Dewpoint Depression Visibility Wind Speed Wind Dir Waves Ship Positions

Alkiviadis

Last reported at 2018-Jun-22 23:53 UTC. Time now 2018-Jun-23 00:21 UTC.
Position N 47°18' W 007°06'.

Length 184 m; draft 11 m.

Type: Tanker. MMSI: 538002553.

Date/timePositionNaut miles runAvg speedWind from/ knotsBaromVisibWave heightAir tempDewpointWater temp
2018-Jun-22 23:53N 47°18' W 007°06'513.6
2018-Jun-22 23:30N 47°23' W 007°02'713.6
2018-Jun-22 23:01N 47°28' W 006°57'913.3
2018-Jun-22 22:21N 47°36' W 006°51'612.8
2018-Jun-22 21:51N 47°42' W 006°47'613.3
2018-Jun-22 21:22N 47°47' W 006°41'613.2
2018-Jun-22 20:53N 47°53' W 006°37'2713.5
2018-Jun-22 18:53N 48°17' W 006°18'2214.4
2018-Jun-22 17:23N 48°35' W 006°02'714.9
2018-Jun-22 16:53N 48°42' W 005°56'614.7
2018-Jun-22 16:31N 48°47' W 005°52'714.9
2018-Jun-22 16:00N 48°53' W 005°46'714.3
2018-Jun-22 15:31N 48°57' W 005°38'714.6
2018-Jun-22 15:01N 49°01' W 005°28'1014.3
2018-Jun-22 14:18N 49°07' W 005°15'414.1
2018-Jun-22 14:00N 49°09' W 005°10'710.7
2018-Jun-22 13:22N 49°12' W 005°00'1 1.7
2018-Jun-22 13:00N 49°12' W 005°01'6313.8
2018-Jun-22 08:23N 49°43' W 003°37'1614.7
2018-Jun-22 07:18N 49°52' W 003°16'414.7
2018-Jun-22 07:01N 49°54' W 003°10'714.5
2018-Jun-22 06:31N 49°58' W 003°00'714.2
2018-Jun-22 06:00N 49°60' W 002°49'713.8
2018-Jun-22 05:28N 50°02' W 002°38'6012.1
2018-Jun-22 00:30N 50°19' W 001°08'714.0
2018-Jun-21 23:59N 50°20' W 000°57'714.6
2018-Jun-21 23:30N 50°22' W 000°47'714.8
2018-Jun-21 23:00N 50°24' W 000°35'815.0
2018-Jun-21 22:30N 50°26' W 000°24'815.1
2018-Jun-21 22:01N 50°28' W 000°13'815.1
2018-Jun-21 21:30N 50°30' W 000°01'715.0
2018-Jun-21 21:00N 50°31' E 000°10'715.0
2018-Jun-21 20:31N 50°33' E 000°22'714.8
2018-Jun-21 20:01N 50°36' E 000°33'714.3
2018-Jun-21 19:31N 50°40' E 000°42'714.0
2018-Jun-21 19:00N 50°44' E 000°51'713.8
2018-Jun-21 18:30N 50°49' E 000°59'713.4
2018-Jun-21 18:00N 50°53' E 001°07'713.3
2018-Jun-21 17:30N 50°57' E 001°15'713.6
2018-Jun-21 17:00N 51°02' E 001°23'714.3
2018-Jun-21 16:30N 51°06' E 001°32'815.3
2018-Jun-21 16:00N 51°11' E 001°41'815.5
2018-Jun-21 15:30N 51°17' E 001°49'815.4
2018-Jun-21 15:01N 51°23' E 001°56'713.3
2018-Jun-21 14:30N 51°23' E 002°07'713.7
2018-Jun-21 14:00N 51°21' E 002°17'815.4
2018-Jun-21 13:30N 51°23' E 002°29'913.7
2018-Jun-21 12:53N 51°23' E 002°43'512.1
2018-Jun-21 12:29N 51°25' E 002°50'714.1
2018-Jun-21 12:00N 51°25' E 003°00'714.3
2018-Jun-21 11:30N 51°24' E 003°12'815.1
2018-Jun-21 11:00N 51°25' E 003°24'713.4
2018-Jun-21 10:30N 51°26' E 003°35'4 8.7
2018-Jun-21 10:00N 51°26' E 003°42'713.4
2018-Jun-21 09:30N 51°21' E 003°49'612.9
2018-Jun-21 09:00N 51°24' E 003°57'3 6.2
2018-Jun-21 08:30N 51°24' E 004°02'5 9.2
2018-Jun-21 08:00N 51°23' E 004°09'3 5.3
2018-Jun-21 07:30N 51°22' E 004°13'3 5.2
2018-Jun-21 07:01N 51°21' E 004°17'0 0.0
2018-Jun-21 06:30N 51°21' E 004°17'0 0.0
2018-Jun-21 06:01N 51°21' E 004°17'1 1.2
2018-Jun-21 05:30N 51°20' E 004°18'3 5.5
2018-Jun-21 05:00N 51°18' E 004°20'2 3.7
2018-Jun-21 04:30N 51°16' E 004°21'0 0.0
2018-Jun-21 03:54N 51°16' E 004°21'0 0.0
2018-Jun-21 03:27N 51°16' E 004°21'0 0.0
2018-Jun-21 02:54N 51°16' E 004°21'0 0.0
2018-Jun-21 02:30N 51°16' E 004°21'0 0.0
2018-Jun-21 02:00N 51°16' E 004°21'0 0.0
2018-Jun-21 01:27N 51°16' E 004°21'0 0.0
2018-Jun-21 01:00N 51°16' E 004°21'0 0.0
2018-Jun-21 00:24N 51°16' E 004°21'0 0.0
2018-Jun-20 23:57N 51°16' E 004°21'0 0.0
2018-Jun-20 23:27N 51°16' E 004°21'0 0.0
2018-Jun-20 23:00N 51°16' E 004°21'0 0.0
2018-Jun-20 22:27N 51°16' E 004°21'0 0.0
2018-Jun-20 21:57N 51°16' E 004°21'0 0.0
2018-Jun-20 21:27N 51°16' E 004°21'0 0.0
2018-Jun-20 20:57N 51°16' E 004°21'0 0.0
2018-Jun-20 20:27N 51°16' E 004°21'0 0.0
2018-Jun-20 19:57N 51°16' E 004°21'0 0.0
2018-Jun-20 19:27N 51°16' E 004°21'0 0.0
2018-Jun-20 18:57N 51°16' E 004°21'0 0.0
2018-Jun-20 18:30N 51°16' E 004°21'0 0.0
2018-Jun-20 17:51N 51°16' E 004°21'0 0.0
2018-Jun-20 17:30N 51°16' E 004°21'0 0.0
2018-Jun-20 16:51N 51°16' E 004°21'0 0.0
2018-Jun-20 16:27N 51°16' E 004°21'0 0.0
2018-Jun-20 15:51N 51°16' E 004°21'0 0.0
2018-Jun-20 15:30N 51°16' E 004°21'0 0.0
2018-Jun-20 14:57N 51°16' E 004°21'0 0.0
2018-Jun-20 14:27N 51°16' E 004°21'0 0.0
2018-Jun-20 14:00N 51°16' E 004°21'0 0.0
2018-Jun-20 13:30N 51°16' E 004°21'0 0.0
2018-Jun-20 12:21N 51°16' E 004°21'0 0.0
2018-Jun-20 11:57N 51°16' E 004°21'0 0.0
2018-Jun-20 11:24N 51°16' E 004°21'0 0.0
2018-Jun-20 11:00N 51°16' E 004°21'0 0.0
2018-Jun-20 10:27N 51°16' E 004°21'0 0.0
2018-Jun-20 10:00N 51°16' E 004°21'0 0.0
2018-Jun-20 09:30N 51°16' E 004°21'0 0.0
2018-Jun-20 08:57N 51°16' E 004°21'0 0.0
2018-Jun-20 08:27N 51°16' E 004°21'0 0.0
2018-Jun-20 08:00N 51°16' E 004°21'0 0.0
2018-Jun-20 07:21N 51°16' E 004°21'0 0.0
2018-Jun-20 07:00N 51°16' E 004°21'0 0.0
2018-Jun-20 06:30N 51°16' E 004°21'0 0.0
2018-Jun-20 06:00N 51°16' E 004°21'0 0.0
2018-Jun-20 05:30N 51°16' E 004°21'0 0.0
2018-Jun-20 04:42N 51°16' E 004°21'0 0.0
2018-Jun-20 04:24N 51°16' E 004°21'0 0.0
2018-Jun-20 03:57N 51°16' E 004°21'0 0.0
2018-Jun-20 03:24N 51°16' E 004°21'0 0.0
2018-Jun-20 02:57N 51°16' E 004°21'0 0.0
2018-Jun-20 02:24N 51°16' E 004°21'0 0.0
2018-Jun-20 02:00N 51°16' E 004°21'0 0.0
2018-Jun-20 01:30N 51°16' E 004°21'0 0.0
2018-Jun-20 01:00N 51°16' E 004°21'0 0.0
2018-Jun-20 00:30N 51°16' E 004°21'0 0.0
2018-Jun-20 00:00N 51°16' E 004°21'0 0.0
2018-Jun-19 23:27N 51°16' E 004°21'0 0.0
2018-Jun-19 22:57N 51°16' E 004°21'0 0.0
2018-Jun-19 22:24N 51°16' E 004°21'0 0.0
2018-Jun-19 21:57N 51°16' E 004°21'0 0.0
2018-Jun-19 21:30N 51°16' E 004°21'0 0.0
2018-Jun-19 20:57N 51°16' E 004°21'0 0.0
2018-Jun-19 20:30N 51°16' E 004°21'0 0.0
2018-Jun-19 20:00N 51°16' E 004°21'0 0.0
2018-Jun-19 19:30N 51°16' E 004°21'0 0.0
2018-Jun-19 19:00N 51°16' E 004°21'0 0.0
2018-Jun-19 18:30N 51°16' E 004°21'0 0.0
2018-Jun-19 17:57N 51°16' E 004°21'0 0.0
2018-Jun-19 17:27N 51°16' E 004°21'0 0.0
2018-Jun-19 17:00N 51°16' E 004°21'0 0.0
2018-Jun-19 16:30N 51°16' E 004°21'0 0.0
2018-Jun-19 15:57N 51°16' E 004°21'0 0.0
2018-Jun-19 15:30N 51°16' E 004°21'0 0.0
2018-Jun-19 14:57N 51°16' E 004°21'0 0.0
2018-Jun-19 14:24N 51°16' E 004°21'0 0.0
2018-Jun-19 14:00N 51°16' E 004°21'0 0.0
2018-Jun-19 13:27N 51°16' E 004°21'0 0.0
2018-Jun-19 13:00N 51°16' E 004°21'0 0.0
2018-Jun-19 12:30N 51°16' E 004°21'0 0.0
2018-Jun-19 11:57N 51°16' E 004°21'0 0.0
2018-Jun-19 11:27N 51°16' E 004°21'1 1.6
2018-Jun-19 11:01N 51°17' E 004°21'3 6.6
2018-Jun-19 10:31N 51°20' E 004°18'1 2.2
2018-Jun-19 10:00N 51°21' E 004°17'0 0.0
2018-Jun-19 09:30N 51°21' E 004°17'0 0.0
2018-Jun-19 09:00N 51°21' E 004°17'2 3.6
2018-Jun-19 08:30N 51°21' E 004°14'3 6.8
2018-Jun-19 08:01N 51°23' E 004°10'5 9.5
2018-Jun-19 07:30N 51°23' E 004°02'4 7.1
2018-Jun-19 07:00N 51°25' E 003°58'611.3
2018-Jun-19 06:30N 51°21' E 003°52'611.5
2018-Jun-19 06:00N 51°23' E 003°44'510.1
2018-Jun-19 05:31N 51°26' E 003°38'4 9.0
2018-Jun-19 05:00N 51°25' E 003°30'713.4
2018-Jun-19 04:31N 51°24' E 003°20'612.4
2018-Jun-19 04:01N 51°24' E 003°10'713.1
2018-Jun-19 03:30N 51°23' E 002°59'713.6
2018-Jun-19 02:59N 51°22' E 002°48'3 7.3
2018-Jun-19 02:30N 51°23' E 002°43'3 6.1
2018-Jun-19 01:59N 51°26' E 002°40'1 1.4
2018-Jun-19 01:29N 51°25' E 002°39'0 0.1
2018-Jun-19 00:53N 51°25' E 002°39'0 0.1
2018-Jun-18 23:50N 51°25' E 002°39'0 0.1
2018-Jun-18 23:11N 51°25' E 002°39'0 0.1
2018-Jun-18 21:38N 51°25' E 002°39'0 0.1
2018-Jun-18 21:17N 51°25' E 002°39'0 0.0
2018-Jun-18 20:56N 51°25' E 002°39'0 0.0
2018-Jun-18 20:29N 51°25' E 002°39'0 0.0
2018-Jun-18 19:11N 51°25' E 002°39'0 0.0
2018-Jun-18 18:56N 51°25' E 002°39'0 0.1
2018-Jun-18 18:20N 51°25' E 002°39'0 0.2
2018-Jun-18 17:59N 51°25' E 002°39'0 0.1
2018-Jun-18 17:29N 51°25' E 002°39'0 0.1
2018-Jun-18 16:59N 51°25' E 002°39'0 0.1
2018-Jun-18 16:29N 51°25' E 002°39'0 0.0
2018-Jun-18 15:59N 51°25' E 002°39'0 0.1
2018-Jun-18 15:29N 51°25' E 002°39'0 0.0
2018-Jun-18 14:47N 51°25' E 002°39'0 0.1
2018-Jun-18 14:23N 51°25' E 002°39'0 0.1
2018-Jun-18 13:59N 51°25' E 002°39'0 0.2
2018-Jun-18 13:29N 51°25' E 002°39'0 0.2
2018-Jun-18 12:44N 51°25' E 002°39'0 0.1
2018-Jun-18 12:29N 51°25' E 002°39'0 0.0
2018-Jun-18 11:59N 51°25' E 002°39'0 0.0
2018-Jun-18 11:05N 51°25' E 002°39'0 0.3
2018-Jun-18 10:59N 51°25' E 002°39'0 0.3
2018-Jun-18 10:29N 51°25' E 002°39'0 0.1
2018-Jun-18 09:47N 51°25' E 002°39'0 0.1
2018-Jun-18 09:26N 51°25' E 002°39'0 0.1
2018-Jun-18 08:59N 51°25' E 002°39'0 0.1
2018-Jun-18 08:29N 51°25' E 002°39'0 0.1
2018-Jun-18 07:59N 51°25' E 002°39'0 0.0
2018-Jun-18 07:02N 51°25' E 002°39'0 0.0
2018-Jun-18 06:05N 51°25' E 002°39'0 0.0
2018-Jun-18 05:56N 51°25' E 002°39'0 0.0
2018-Jun-18 05:29N 51°25' E 002°39'0 0.0
2018-Jun-18 04:56N 51°25' E 002°39'0 0.0
2018-Jun-18 04:14N 51°25' E 002°39'0 0.0
2018-Jun-18 03:44N 51°25' E 002°39'0 0.0
2018-Jun-18 01:32N 51°25' E 002°39'0 0.1
2018-Jun-18 01:29N 51°25' E 002°39'0 0.2
2018-Jun-18 00:59N 51°25' E 002°39'0 0.1
2018-Jun-18 00:08N 51°25' E 002°39'0 0.1
2018-Jun-17 23:56N 51°25' E 002°39'0 0.1
2018-Jun-17 22:53N 51°25' E 002°39'0 0.2
2018-Jun-17 22:29N 51°25' E 002°39'0 0.1
2018-Jun-17 20:23N 51°25' E 002°39'0 0.0
2018-Jun-17 19:59N 51°25' E 002°39'0 0.0
2018-Jun-17 19:29N 51°25' E 002°39'0 0.0
2018-Jun-17 18:53N 51°25' E 002°39'0 0.1
2018-Jun-17 18:26N 51°25' E 002°39'0 0.1
2018-Jun-17 17:47N 51°25' E 002°39'0 0.0
2018-Jun-17 17:29N 51°25' E 002°39'0 0.1
2018-Jun-17 16:56N 51°25' E 002°39'0 0.0
2018-Jun-17 16:29N 51°25' E 002°39'0 0.0
2018-Jun-17 15:20N 51°25' E 002°39'0 0.1
2018-Jun-17 14:56N 51°25' E 002°39'0 0.0
2018-Jun-17 14:29N 51°25' E 002°39'0 0.0
2018-Jun-17 13:59N 51°25' E 002°39'0 0.0
2018-Jun-17 13:26N 51°25' E 002°39'0 0.2
2018-Jun-17 12:56N 51°25' E 002°39'0 0.3
2018-Jun-17 12:29N 51°25' E 002°39'0 0.0
2018-Jun-17 10:59N 51°25' E 002°39'0 0.0
2018-Jun-17 10:17N 51°25' E 002°39'0 0.1
2018-Jun-17 09:32N 51°25' E 002°39'0 0.2
2018-Jun-17 09:17N 51°25' E 002°39'0 0.2
2018-Jun-17 08:56N 51°25' E 002°39'0 0.2
2018-Jun-17 08:26N 51°25' E 002°39'0 0.1
2018-Jun-17 07:56N 51°25' E 002°39'0 0.1
2018-Jun-17 07:29N 51°25' E 002°39'0 0.0
2018-Jun-17 06:56N 51°25' E 002°39'0 0.0
2018-Jun-17 06:29N 51°25' E 002°39'0 0.0
2018-Jun-17 05:50N 51°25' E 002°39'0 0.0
2018-Jun-17 05:29N 51°25' E 002°39'0 0.0
2018-Jun-17 04:32N 51°25' E 002°39'0 0.0
2018-Jun-17 04:17N 51°25' E 002°39'0 0.0
2018-Jun-17 03:53N 51°25' E 002°39'0 0.0
2018-Jun-17 03:29N 51°25' E 002°39'0 0.0
2018-Jun-17 02:59N 51°25' E 002°39'0 0.0
2018-Jun-17 01:44N 51°25' E 002°39'0 0.1
2018-Jun-17 01:29N 51°25' E 002°39'0 0.0
2018-Jun-17 00:29N 51°25' E 002°39'0 0.1
2018-Jun-16 21:56N 51°25' E 002°39'0 0.2
2018-Jun-16 21:26N 51°25' E 002°39'0 0.1
2018-Jun-16 20:41N 51°25' E 002°39'0 0.0
2018-Jun-16 20:17N 51°25' E 002°39'0 0.1
2018-Jun-16 19:59N 51°25' E 002°39'0 0.0
2018-Jun-16 19:23N 51°25' E 002°39'0 0.0
2018-Jun-16 18:50N 51°25' E 002°39'0 0.1
2018-Jun-16 18:26N 51°25' E 002°39'0 0.0
2018-Jun-16 17:59N 51°25' E 002°39'0 0.0
2018-Jun-16 17:26N 51°25' E 002°39'0 0.0
2018-Jun-16 16:59N 51°25' E 002°39'0 0.0
2018-Jun-16 16:14N 51°25' E 002°39'0 0.0
2018-Jun-16 15:47N 51°25' E 002°39'0 0.0
2018-Jun-16 15:23N 51°25' E 002°39'0 0.0
2018-Jun-16 14:59N 51°25' E 002°39'0 0.1
2018-Jun-16 14:29N 51°25' E 002°39'0 0.0
2018-Jun-16 13:56N 51°25' E 002°39'0 0.0
2018-Jun-16 13:29N 51°25' E 002°39'0 0.0
2018-Jun-16 12:56N 51°25' E 002°39'0 0.0
2018-Jun-16 12:26N 51°25' E 002°39'0 0.4
2018-Jun-16 11:59N 51°25' E 002°39'0 0.2
2018-Jun-16 11:29N 51°25' E 002°39'0 0.1
2018-Jun-16 10:56N 51°25' E 002°39'0 0.0
2018-Jun-16 10:29N 51°25' E 002°39'0 0.0
2018-Jun-16 09:59N 51°25' E 002°39'0 0.0
2018-Jun-16 09:29N 51°25' E 002°39'0 0.2
2018-Jun-16 08:59N 51°25' E 002°39'0 0.3
2018-Jun-16 08:29N 51°25' E 002°39'0 0.3
2018-Jun-16 07:59N 51°25' E 002°39'0 0.0
2018-Jun-16 07:29N 51°25' E 002°39'0 0.0
2018-Jun-16 06:59N 51°25' E 002°39'0 0.0
2018-Jun-16 06:29N 51°25' E 002°39'0 0.0
2018-Jun-16 05:59N 51°25' E 002°39'0 0.0
2018-Jun-16 05:29N 51°25' E 002°39'0 0.1
2018-Jun-16 04:59N 51°25' E 002°39'0 0.1
2018-Jun-16 04:29N 51°25' E 002°39'0 0.0
2018-Jun-16 03:59N 51°25' E 002°39'0 0.0
2018-Jun-16 03:29N 51°25' E 002°39'0 0.0
2018-Jun-16 02:56N 51°25' E 002°39'0 0.0
2018-Jun-16 02:29N 51°25' E 002°39'0 0.0
2018-Jun-16 01:59N 51°25' E 002°39'0 0.0
2018-Jun-16 01:08N 51°25' E 002°39'0 0.0
2018-Jun-16 00:50N 51°25' E 002°39'0 0.0
2018-Jun-16 00:29N 51°25' E 002°39'0 0.1
2018-Jun-15 23:59N 51°25' E 002°39'0 0.4
2018-Jun-15 23:29N 51°25' E 002°39'0 0.0
2018-Jun-15 22:59N 51°25' E 002°39'0 0.1
2018-Jun-15 22:29N 51°25' E 002°39'0 0.0
2018-Jun-15 21:59N 51°25' E 002°39'0 0.0
2018-Jun-15 21:29N 51°25' E 002°39'0 0.0
2018-Jun-15 20:53N 51°25' E 002°39'0 0.0
2018-Jun-15 20:29N 51°25' E 002°39'0 0.2
2018-Jun-15 19:47N 51°25' E 002°39'0 0.3
2018-Jun-15 19:29N 51°25' E 002°39'0 0.1
2018-Jun-15 18:59N 51°25' E 002°39'0 0.0
2018-Jun-15 18:29N 51°25' E 002°39'0 0.0
2018-Jun-15 17:53N 51°25' E 002°39'0 0.0
2018-Jun-15 17:29N 51°25' E 002°39'0 0.0
2018-Jun-15 16:59N 51°25' E 002°39'0 0.0
2018-Jun-15 16:29N 51°25' E 002°39'0 0.0
2018-Jun-15 15:59N 51°25' E 002°39'0 0.0
2018-Jun-15 15:29N 51°25' E 002°39'0 0.0
2018-Jun-15 14:59N 51°25' E 002°39'0 0.0
2018-Jun-15 14:29N 51°25' E 002°39'0 0.1
2018-Jun-15 13:59N 51°25' E 002°39'0 0.0
2018-Jun-15 13:29N 51°25' E 002°39'0 0.0
2018-Jun-15 12:59N 51°25' E 002°39'0 0.0
2018-Jun-15 12:29N 51°25' E 002°39'0 0.1
2018-Jun-15 11:59N 51°25' E 002°39'0 0.3
2018-Jun-15 11:29N 51°25' E 002°39'0 0.1
2018-Jun-15 10:53N 51°25' E 002°39'0 0.0
2018-Jun-15 10:29N 51°25' E 002°39'0 0.0
2018-Jun-15 09:59N 51°25' E 002°39'0 0.0
2018-Jun-15 09:29N 51°25' E 002°39'0 0.0
2018-Jun-15 08:59N 51°25' E 002°39'0 0.0
2018-Jun-15 08:29N 51°25' E 002°39'0 0.0
2018-Jun-15 07:59N 51°25' E 002°39'0 0.1
2018-Jun-15 07:29N 51°25' E 002°39'0 0.0
2018-Jun-15 06:59N 51°25' E 002°39'0 0.1
2018-Jun-15 06:20N 51°25' E 002°39'0 0.0
2018-Jun-15 05:56N 51°25' E 002°39'0 0.1
2018-Jun-15 05:29N 51°25' E 002°39'0 0.1
2018-Jun-15 04:59N 51°25' E 002°39'0 0.1
2018-Jun-15 04:29N 51°25' E 002°39'0 0.0
2018-Jun-15 03:53N 51°25' E 002°39'0 0.0
2018-Jun-15 03:29N 51°25' E 002°39'0 0.0
2018-Jun-15 02:59N 51°25' E 002°39'0 0.0
2018-Jun-15 02:29N 51°25' E 002°39'0 0.0
2018-Jun-15 01:59N 51°25' E 002°39'0 0.0
2018-Jun-15 01:29N 51°25' E 002°39'0 0.0
2018-Jun-15 00:59N 51°25' E 002°39'0 0.0
2018-Jun-15 00:29N 51°25' E 002°39'0 0.0
2018-Jun-14 23:59N 51°25' E 002°39'0 0.0
2018-Jun-14 23:29N 51°25' E 002°39'0 0.2
2018-Jun-14 22:59N 51°25' E 002°39'0 0.3
2018-Jun-14 22:29N 51°25' E 002°39'0 0.1
2018-Jun-14 21:59N 51°25' E 002°39'0 0.0
2018-Jun-14 21:29N 51°25' E 002°39'0 0.0
2018-Jun-14 20:56N 51°25' E 002°39'0 0.1
2018-Jun-14 20:29N 51°25' E 002°39'0 0.1
2018-Jun-14 19:59N 51°25' E 002°39'0 0.3
2018-Jun-14 19:29N 51°25' E 002°39'0 0.2
2018-Jun-14 18:50N 51°25' E 002°39'0 0.1
2018-Jun-14 18:23N 51°25' E 002°39'0 0.1
2018-Jun-14 17:44N 51°25' E 002°39'0 0.0
2018-Jun-14 16:35N 51°25' E 002°39'0 0.0
2018-Jun-14 16:05N 51°25' E 002°39'0 0.0
2018-Jun-14 15:44N 51°25' E 002°39'0 0.1
2018-Jun-14 15:23N 51°25' E 002°39'0 0.0
2018-Jun-14 14:53N 51°25' E 002°39'0 0.0
2018-Jun-14 13:32N 51°25' E 002°39'0 0.0
2018-Jun-14 11:50N 51°25' E 002°39'0 0.0
2018-Jun-14 11:17N 51°25' E 002°39'0 0.1
2018-Jun-14 10:44N 51°25' E 002°39'0 0.1
2018-Jun-14 10:26N 51°25' E 002°39'0 0.2
2018-Jun-14 09:53N 51°25' E 002°39'0 0.3
2018-Jun-14 09:23N 51°25' E 002°39'0 0.0
2018-Jun-14 08:50N 51°25' E 002°39'0 0.1
2018-Jun-14 07:53N 51°25' E 002°39'0 0.1
2018-Jun-14 07:26N 51°25' E 002°39'0 0.1
2018-Jun-14 06:56N 51°25' E 002°39'0 0.1
2018-Jun-14 06:26N 51°25' E 002°39'0 0.0
2018-Jun-14 05:59N 51°25' E 002°39'0 0.0
2018-Jun-14 05:29N 51°25' E 002°39'0 0.0
2018-Jun-14 04:59N 51°25' E 002°39'0 0.0
2018-Jun-14 04:29N 51°25' E 002°39'0 0.0
2018-Jun-14 03:59N 51°25' E 002°39'0 0.0
2018-Jun-14 03:29N 51°25' E 002°39'1 1.9
2018-Jun-14 03:00N 51°26' E 002°40'3 5.9
2018-Jun-14 02:30N 51°23' E 002°43'510.0
2018-Jun-14 02:00N 51°23' E 002°51'612.6
2018-Jun-14 01:30N 51°24' E 003°01'612.5
2018-Jun-14 01:00N 51°24' E 003°11'612.4
2018-Jun-14 00:30N 51°24' E 003°21'611.7
2018-Jun-14 00:00N 51°25' E 003°30'510.3
2018-Jun-13 23:30N 51°26' E 003°38'4 7.4
2018-Jun-13 23:00N 51°25' E 003°44'0 0.2
2018-Jun-13 22:30N 51°25' E 003°44'0 0.0
2018-Jun-13 22:00N 51°25' E 003°44'0 0.0
2018-Jun-13 21:30N 51°25' E 003°44'0 0.0
2018-Jun-13 21:00N 51°25' E 003°44'0 0.0
2018-Jun-13 20:30N 51°25' E 003°44'0 0.0
2018-Jun-13 20:00N 51°25' E 003°44'0 0.0
2018-Jun-13 19:30N 51°25' E 003°44'0 0.0
2018-Jun-13 19:00N 51°25' E 003°44'0 0.0
2018-Jun-13 18:30N 51°25' E 003°44'0 0.0
2018-Jun-13 18:00N 51°25' E 003°44'0 0.0
2018-Jun-13 17:30N 51°25' E 003°44'0 0.0
2018-Jun-13 17:00N 51°25' E 003°44'0 0.0
2018-Jun-13 16:30N 51°25' E 003°44'0 0.0
2018-Jun-13 16:00N 51°25' E 003°44'0 0.0
2018-Jun-13 15:30N 51°25' E 003°44'0 0.0
2018-Jun-13 15:00N 51°25' E 003°44'0 0.0
2018-Jun-13 14:30N 51°25' E 003°44'0 0.0
2018-Jun-13 13:57N 51°25' E 003°44'0 0.0
2018-Jun-13 13:30N 51°25' E 003°44'0 0.0
2018-Jun-13 12:51N 51°25' E 003°44'0 0.0
2018-Jun-13 12:27N 51°25' E 003°44'0 0.0
2018-Jun-13 12:00N 51°25' E 003°44'0 0.0
2018-Jun-13 11:24N 51°25' E 003°44'0 0.0
2018-Jun-13 11:00N 51°25' E 003°44'0 0.0
2018-Jun-13 10:30N 51°25' E 003°44'0 0.0
2018-Jun-13 10:00N 51°25' E 003°44'0 0.0
2018-Jun-13 09:30N 51°25' E 003°44'0 0.0
2018-Jun-13 08:57N 51°25' E 003°44'0 0.0
2018-Jun-13 08:30N 51°25' E 003°44'0 0.0
2018-Jun-13 08:00N 51°25' E 003°44'0 0.0
2018-Jun-13 07:30N 51°25' E 003°44'0 0.0
2018-Jun-13 07:00N 51°25' E 003°44'0 0.0
2018-Jun-13 06:27N 51°25' E 003°44'0 0.0
2018-Jun-13 05:57N 51°25' E 003°44'0 0.0
2018-Jun-13 05:30N 51°25' E 003°44'0 0.0
2018-Jun-13 05:00N 51°25' E 003°44'0 0.0
2018-Jun-13 04:27N 51°25' E 003°44'0 0.0
2018-Jun-13 04:00N 51°25' E 003°44'0 0.0
2018-Jun-13 03:30N 51°25' E 003°44'0 0.0
2018-Jun-13 02:57N 51°25' E 003°44'0 0.0
2018-Jun-13 02:30N 51°25' E 003°44'0 0.0
2018-Jun-13 02:00N 51°25' E 003°44'0 0.0
2018-Jun-13 01:30N 51°25' E 003°44'0 0.0
2018-Jun-13 01:00N 51°25' E 003°44'0 0.0
2018-Jun-13 00:30N 51°25' E 003°44'0 0.0
2018-Jun-12 23:57N 51°25' E 003°44'  
Track history (hours):
 
Tides and Currents Weather Stations Pressure Air Temp Water Temp Dewpoint Dewpoint Depression Visibility Wind Speed Wind Dir Waves Ship Positions

Alkiviadis

Last reported at 2018-Jun-22 23:53 UTC. Time now 2018-Jun-23 00:21 UTC.
Position N 47°18' W 007°06'.

Length 184 m; draft 11 m.

Type: Tanker. MMSI: 538002553.

Date/timePositionNaut miles runAvg speedWind from/ knotsBaromVisibWave heightAir tempDewpointWater temp
2018-Jun-22 23:53N 47°18' W 007°06'513.6
2018-Jun-22 23:30N 47°23' W 007°02'713.6
2018-Jun-22 23:01N 47°28' W 006°57'913.3
2018-Jun-22 22:21N 47°36' W 006°51'612.8
2018-Jun-22 21:51N 47°42' W 006°47'613.3
2018-Jun-22 21:22N 47°47' W 006°41'613.2
2018-Jun-22 20:53N 47°53' W 006°37'2713.5
2018-Jun-22 18:53N 48°17' W 006°18'2214.4
2018-Jun-22 17:23N 48°35' W 006°02'714.9
2018-Jun-22 16:53N 48°42' W 005°56'614.7
2018-Jun-22 16:31N 48°47' W 005°52'714.9
2018-Jun-22 16:00N 48°53' W 005°46'714.3
2018-Jun-22 15:31N 48°57' W 005°38'714.6
2018-Jun-22 15:01N 49°01' W 005°28'1014.3
2018-Jun-22 14:18N 49°07' W 005°15'414.1
2018-Jun-22 14:00N 49°09' W 005°10'710.7
2018-Jun-22 13:22N 49°12' W 005°00'1 1.7
2018-Jun-22 13:00N 49°12' W 005°01'6313.8
2018-Jun-22 08:23N 49°43' W 003°37'1614.7
2018-Jun-22 07:18N 49°52' W 003°16'414.7
2018-Jun-22 07:01N 49°54' W 003°10'714.5
2018-Jun-22 06:31N 49°58' W 003°00'714.2
2018-Jun-22 06:00N 49°60' W 002°49'713.8
2018-Jun-22 05:28N 50°02' W 002°38'6012.1
2018-Jun-22 00:30N 50°19' W 001°08'714.0
2018-Jun-21 23:59N 50°20' W 000°57'714.6
2018-Jun-21 23:30N 50°22' W 000°47'714.8
2018-Jun-21 23:00N 50°24' W 000°35'815.0
2018-Jun-21 22:30N 50°26' W 000°24'815.1
2018-Jun-21 22:01N 50°28' W 000°13'815.1
2018-Jun-21 21:30N 50°30' W 000°01'715.0
2018-Jun-21 21:00N 50°31' E 000°10'715.0
2018-Jun-21 20:31N 50°33' E 000°22'714.8
2018-Jun-21 20:01N 50°36' E 000°33'714.3
2018-Jun-21 19:31N 50°40' E 000°42'714.0
2018-Jun-21 19:00N 50°44' E 000°51'713.8
2018-Jun-21 18:30N 50°49' E 000°59'713.4
2018-Jun-21 18:00N 50°53' E 001°07'713.3
2018-Jun-21 17:30N 50°57' E 001°15'713.6
2018-Jun-21 17:00N 51°02' E 001°23'714.3
2018-Jun-21 16:30N 51°06' E 001°32'815.3
2018-Jun-21 16:00N 51°11' E 001°41'815.5
2018-Jun-21 15:30N 51°17' E 001°49'815.4
2018-Jun-21 15:01N 51°23' E 001°56'713.3
2018-Jun-21 14:30N 51°23' E 002°07'713.7
2018-Jun-21 14:00N 51°21' E 002°17'815.4
2018-Jun-21 13:30N 51°23' E 002°29'913.7
2018-Jun-21 12:53N 51°23' E 002°43'512.1
2018-Jun-21 12:29N 51°25' E 002°50'714.1
2018-Jun-21 12:00N 51°25' E 003°00'714.3
2018-Jun-21 11:30N 51°24' E 003°12'815.1
2018-Jun-21 11:00N 51°25' E 003°24'713.4
2018-Jun-21 10:30N 51°26' E 003°35'4 8.7
2018-Jun-21 10:00N 51°26' E 003°42'713.4
2018-Jun-21 09:30N 51°21' E 003°49'612.9
2018-Jun-21 09:00N 51°24' E 003°57'3 6.2
2018-Jun-21 08:30N 51°24' E 004°02'5 9.2
2018-Jun-21 08:00N 51°23' E 004°09'3 5.3
2018-Jun-21 07:30N 51°22' E 004°13'3 5.2
2018-Jun-21 07:01N 51°21' E 004°17'0 0.0
2018-Jun-21 06:30N 51°21' E 004°17'0 0.0
2018-Jun-21 06:01N 51°21' E 004°17'1 1.2
2018-Jun-21 05:30N 51°20' E 004°18'3 5.5
2018-Jun-21 05:00N 51°18' E 004°20'2 3.7
2018-Jun-21 04:30N 51°16' E 004°21'0 0.0
2018-Jun-21 03:54N 51°16' E 004°21'0 0.0
2018-Jun-21 03:27N 51°16' E 004°21'0 0.0
2018-Jun-21 02:54N 51°16' E 004°21'0 0.0
2018-Jun-21 02:30N 51°16' E 004°21'0 0.0
2018-Jun-21 02:00N 51°16' E 004°21'0 0.0
2018-Jun-21 01:27N 51°16' E 004°21'0 0.0
2018-Jun-21 01:00N 51°16' E 004°21'0 0.0
2018-Jun-21 00:24N 51°16' E 004°21'0 0.0
2018-Jun-20 23:57N 51°16' E 004°21'0 0.0
2018-Jun-20 23:27N 51°16' E 004°21'0 0.0
2018-Jun-20 23:00N 51°16' E 004°21'0 0.0
2018-Jun-20 22:27N 51°16' E 004°21'0 0.0
2018-Jun-20 21:57N 51°16' E 004°21'0 0.0
2018-Jun-20 21:27N 51°16' E 004°21'0 0.0
2018-Jun-20 20:57N 51°16' E 004°21'0 0.0
2018-Jun-20 20:27N 51°16' E 004°21'0 0.0
2018-Jun-20 19:57N 51°16' E 004°21'0 0.0
2018-Jun-20 19:27N 51°16' E 004°21'0 0.0
2018-Jun-20 18:57N 51°16' E 004°21'0 0.0
2018-Jun-20 18:30N 51°16' E 004°21'0 0.0
2018-Jun-20 17:51N 51°16' E 004°21'0 0.0
2018-Jun-20 17:30N 51°16' E 004°21'0 0.0
2018-Jun-20 16:51N 51°16' E 004°21'0 0.0
2018-Jun-20 16:27N 51°16' E 004°21'0 0.0
2018-Jun-20 15:51N 51°16' E 004°21'0 0.0
2018-Jun-20 15:30N 51°16' E 004°21'0 0.0
2018-Jun-20 14:57N 51°16' E 004°21'0 0.0
2018-Jun-20 14:27N 51°16' E 004°21'0 0.0
2018-Jun-20 14:00N 51°16' E 004°21'0 0.0
2018-Jun-20 13:30N 51°16' E 004°21'0 0.0
2018-Jun-20 12:21N 51°16' E 004°21'0 0.0
2018-Jun-20 11:57N 51°16' E 004°21'0 0.0
2018-Jun-20 11:24N 51°16' E 004°21'0 0.0
2018-Jun-20 11:00N 51°16' E 004°21'0 0.0
2018-Jun-20 10:27N 51°16' E 004°21'0 0.0
2018-Jun-20 10:00N 51°16' E 004°21'0 0.0
2018-Jun-20 09:30N 51°16' E 004°21'0 0.0
2018-Jun-20 08:57N 51°16' E 004°21'0 0.0
2018-Jun-20 08:27N 51°16' E 004°21'0 0.0
2018-Jun-20 08:00N 51°16' E 004°21'0 0.0
2018-Jun-20 07:21N 51°16' E 004°21'0 0.0
2018-Jun-20 07:00N 51°16' E 004°21'0 0.0
2018-Jun-20 06:30N 51°16' E 004°21'0 0.0
2018-Jun-20 06:00N 51°16' E 004°21'0 0.0
2018-Jun-20 05:30N 51°16' E 004°21'0 0.0
2018-Jun-20 04:42N 51°16' E 004°21'0 0.0
2018-Jun-20 04:24N 51°16' E 004°21'0 0.0
2018-Jun-20 03:57N 51°16' E 004°21'0 0.0
2018-Jun-20 03:24N 51°16' E 004°21'0 0.0
2018-Jun-20 02:57N 51°16' E 004°21'0 0.0
2018-Jun-20 02:24N 51°16' E 004°21'0 0.0
2018-Jun-20 02:00N 51°16' E 004°21'0 0.0
2018-Jun-20 01:30N 51°16' E 004°21'0 0.0
2018-Jun-20 01:00N 51°16' E 004°21'0 0.0
2018-Jun-20 00:30N 51°16' E 004°21'0 0.0
2018-Jun-20 00:00N 51°16' E 004°21'0 0.0
2018-Jun-19 23:27N 51°16' E 004°21'0 0.0
2018-Jun-19 22:57N 51°16' E 004°21'0 0.0
2018-Jun-19 22:24N 51°16' E 004°21'0 0.0
2018-Jun-19 21:57N 51°16' E 004°21'0 0.0
2018-Jun-19 21:30N 51°16' E 004°21'0 0.0
2018-Jun-19 20:57N 51°16' E 004°21'0 0.0
2018-Jun-19 20:30N 51°16' E 004°21'0 0.0
2018-Jun-19 20:00N 51°16' E 004°21'0 0.0
2018-Jun-19 19:30N 51°16' E 004°21'0 0.0
2018-Jun-19 19:00N 51°16' E 004°21'0 0.0
2018-Jun-19 18:30N 51°16' E 004°21'0 0.0
2018-Jun-19 17:57N 51°16' E 004°21'0 0.0
2018-Jun-19 17:27N 51°16' E 004°21'0 0.0
2018-Jun-19 17:00N 51°16' E 004°21'0 0.0
2018-Jun-19 16:30N 51°16' E 004°21'0 0.0
2018-Jun-19 15:57N 51°16' E 004°21'0 0.0
2018-Jun-19 15:30N 51°16' E 004°21'0 0.0
2018-Jun-19 14:57N 51°16' E 004°21'0 0.0
2018-Jun-19 14:24N 51°16' E 004°21'0 0.0
2018-Jun-19 14:00N 51°16' E 004°21'0 0.0
2018-Jun-19 13:27N 51°16' E 004°21'0 0.0
2018-Jun-19 13:00N 51°16' E 004°21'0 0.0
2018-Jun-19 12:30N 51°16' E 004°21'0 0.0
2018-Jun-19 11:57N 51°16' E 004°21'0 0.0
2018-Jun-19 11:27N 51°16' E 004°21'1 1.6
2018-Jun-19 11:01N 51°17' E 004°21'3 6.6
2018-Jun-19 10:31N 51°20' E 004°18'1 2.2
2018-Jun-19 10:00N 51°21' E 004°17'0 0.0
2018-Jun-19 09:30N 51°21' E 004°17'0 0.0
2018-Jun-19 09:00N 51°21' E 004°17'2 3.6
2018-Jun-19 08:30N 51°21' E 004°14'3 6.8
2018-Jun-19 08:01N 51°23' E 004°10'5 9.5
2018-Jun-19 07:30N 51°23' E 004°02'4 7.1
2018-Jun-19 07:00N 51°25' E 003°58'611.3
2018-Jun-19 06:30N 51°21' E 003°52'611.5
2018-Jun-19 06:00N 51°23' E 003°44'510.1
2018-Jun-19 05:31N 51°26' E 003°38'4 9.0
2018-Jun-19 05:00N 51°25' E 003°30'713.4
2018-Jun-19 04:31N 51°24' E 003°20'612.4
2018-Jun-19 04:01N 51°24' E 003°10'713.1
2018-Jun-19 03:30N 51°23' E 002°59'713.6
2018-Jun-19 02:59N 51°22' E 002°48'3 7.3
2018-Jun-19 02:30N 51°23' E 002°43'3 6.1
2018-Jun-19 01:59N 51°26' E 002°40'1 1.4
2018-Jun-19 01:29N 51°25' E 002°39'0 0.1
2018-Jun-19 00:53N 51°25' E 002°39'0 0.1
2018-Jun-18 23:50N 51°25' E 002°39'0 0.1
2018-Jun-18 23:11N 51°25' E 002°39'0 0.1
2018-Jun-18 21:38N 51°25' E 002°39'0 0.1
2018-Jun-18 21:17N 51°25' E 002°39'0 0.0
2018-Jun-18 20:56N 51°25' E 002°39'0 0.0
2018-Jun-18 20:29N 51°25' E 002°39'0 0.0
2018-Jun-18 19:11N 51°25' E 002°39'0 0.0
2018-Jun-18 18:56N 51°25' E 002°39'0 0.1
2018-Jun-18 18:20N 51°25' E 002°39'0 0.2
2018-Jun-18 17:59N 51°25' E 002°39'0 0.1
2018-Jun-18 17:29N 51°25' E 002°39'0 0.1
2018-Jun-18 16:59N 51°25' E 002°39'0 0.1
2018-Jun-18 16:29N 51°25' E 002°39'0 0.0
2018-Jun-18 15:59N 51°25' E 002°39'0 0.1
2018-Jun-18 15:29N 51°25' E 002°39'0 0.0
2018-Jun-18 14:47N 51°25' E 002°39'0 0.1
2018-Jun-18 14:23N 51°25' E 002°39'0 0.1
2018-Jun-18 13:59N 51°25' E 002°39'0 0.2
2018-Jun-18 13:29N 51°25' E 002°39'0 0.2
2018-Jun-18 12:44N 51°25' E 002°39'0 0.1
2018-Jun-18 12:29N 51°25' E 002°39'0 0.0
2018-Jun-18 11:59N 51°25' E 002°39'0 0.0
2018-Jun-18 11:05N 51°25' E 002°39'0 0.3
2018-Jun-18 10:59N 51°25' E 002°39'0 0.3
2018-Jun-18 10:29N 51°25' E 002°39'0 0.1
2018-Jun-18 09:47N 51°25' E 002°39'0 0.1
2018-Jun-18 09:26N 51°25' E 002°39'0 0.1
2018-Jun-18 08:59N 51°25' E 002°39'0 0.1
2018-Jun-18 08:29N 51°25' E 002°39'0 0.1
2018-Jun-18 07:59N 51°25' E 002°39'0 0.0
2018-Jun-18 07:02N 51°25' E 002°39'0 0.0
2018-Jun-18 06:05N 51°25' E 002°39'0 0.0
2018-Jun-18 05:56N 51°25' E 002°39'0 0.0
2018-Jun-18 05:29N 51°25' E 002°39'0 0.0
2018-Jun-18 04:56N 51°25' E 002°39'0 0.0
2018-Jun-18 04:14N 51°25' E 002°39'0 0.0
2018-Jun-18 03:44N 51°25' E 002°39'0 0.0
2018-Jun-18 01:32N 51°25' E 002°39'0 0.1
2018-Jun-18 01:29N 51°25' E 002°39'0 0.2
2018-Jun-18 00:59N 51°25' E 002°39'0 0.1
2018-Jun-18 00:08N 51°25' E 002°39'0 0.1
2018-Jun-17 23:56N 51°25' E 002°39'0 0.1
2018-Jun-17 22:53N 51°25' E 002°39'0 0.2
2018-Jun-17 22:29N 51°25' E 002°39'0 0.1
2018-Jun-17 20:23N 51°25' E 002°39'0 0.0
2018-Jun-17 19:59N 51°25' E 002°39'0 0.0
2018-Jun-17 19:29N 51°25' E 002°39'0 0.0
2018-Jun-17 18:53N 51°25' E 002°39'0 0.1
2018-Jun-17 18:26N 51°25' E 002°39'0 0.1
2018-Jun-17 17:47N 51°25' E 002°39'0 0.0
2018-Jun-17 17:29N 51°25' E 002°39'0 0.1
2018-Jun-17 16:56N 51°25' E 002°39'0 0.0
2018-Jun-17 16:29N 51°25' E 002°39'0 0.0
2018-Jun-17 15:20N 51°25' E 002°39'0 0.1
2018-Jun-17 14:56N 51°25' E 002°39'0 0.0
2018-Jun-17 14:29N 51°25' E 002°39'0 0.0
2018-Jun-17 13:59N 51°25' E 002°39'0 0.0
2018-Jun-17 13:26N 51°25' E 002°39'0 0.2
2018-Jun-17 12:56N 51°25' E 002°39'0 0.3
2018-Jun-17 12:29N 51°25' E 002°39'0 0.0
2018-Jun-17 10:59N 51°25' E 002°39'0 0.0
2018-Jun-17 10:17N 51°25' E 002°39'0 0.1
2018-Jun-17 09:32N 51°25' E 002°39'0 0.2
2018-Jun-17 09:17N 51°25' E 002°39'0 0.2
2018-Jun-17 08:56N 51°25' E 002°39'0 0.2
2018-Jun-17 08:26N 51°25' E 002°39'0 0.1
2018-Jun-17 07:56N 51°25' E 002°39'0 0.1
2018-Jun-17 07:29N 51°25' E 002°39'0 0.0
2018-Jun-17 06:56N 51°25' E 002°39'0 0.0
2018-Jun-17 06:29N 51°25' E 002°39'0 0.0
2018-Jun-17 05:50N 51°25' E 002°39'0 0.0
2018-Jun-17 05:29N 51°25' E 002°39'0 0.0
2018-Jun-17 04:32N 51°25' E 002°39'0 0.0
2018-Jun-17 04:17N 51°25' E 002°39'0 0.0
2018-Jun-17 03:53N 51°25' E 002°39'0 0.0
2018-Jun-17 03:29N 51°25' E 002°39'0 0.0
2018-Jun-17 02:59N 51°25' E 002°39'0 0.0
2018-Jun-17 01:44N 51°25' E 002°39'0 0.1
2018-Jun-17 01:29N 51°25' E 002°39'0 0.0
2018-Jun-17 00:29N 51°25' E 002°39'0 0.1
2018-Jun-16 21:56N 51°25' E 002°39'0 0.2
2018-Jun-16 21:26N 51°25' E 002°39'0 0.1
2018-Jun-16 20:41N 51°25' E 002°39'0 0.0
2018-Jun-16 20:17N 51°25' E 002°39'0 0.1
2018-Jun-16 19:59N 51°25' E 002°39'0 0.0
2018-Jun-16 19:23N 51°25' E 002°39'0 0.0
2018-Jun-16 18:50N 51°25' E 002°39'0 0.1
2018-Jun-16 18:26N 51°25' E 002°39'0 0.0
2018-Jun-16 17:59N 51°25' E 002°39'0 0.0
2018-Jun-16 17:26N 51°25' E 002°39'0 0.0
2018-Jun-16 16:59N 51°25' E 002°39'0 0.0
2018-Jun-16 16:14N 51°25' E 002°39'0 0.0
2018-Jun-16 15:47N 51°25' E 002°39'0 0.0
2018-Jun-16 15:23N 51°25' E 002°39'0 0.0
2018-Jun-16 14:59N 51°25' E 002°39'0 0.1
2018-Jun-16 14:29N 51°25' E 002°39'0 0.0
2018-Jun-16 13:56N 51°25' E 002°39'0 0.0
2018-Jun-16 13:29N 51°25' E 002°39'0 0.0
2018-Jun-16 12:56N 51°25' E 002°39'0 0.0
2018-Jun-16 12:26N 51°25' E 002°39'0 0.4
2018-Jun-16 11:59N 51°25' E 002°39'0 0.2
2018-Jun-16 11:29N 51°25' E 002°39'0 0.1
2018-Jun-16 10:56N 51°25' E 002°39'0 0.0
2018-Jun-16 10:29N 51°25' E 002°39'0 0.0
2018-Jun-16 09:59N 51°25' E 002°39'0 0.0
2018-Jun-16 09:29N 51°25' E 002°39'0 0.2
2018-Jun-16 08:59N 51°25' E 002°39'0 0.3
2018-Jun-16 08:29N 51°25' E 002°39'0 0.3
2018-Jun-16 07:59N 51°25' E 002°39'0 0.0
2018-Jun-16 07:29N 51°25' E 002°39'0 0.0
2018-Jun-16 06:59N 51°25' E 002°39'0 0.0
2018-Jun-16 06:29N 51°25' E 002°39'0 0.0
2018-Jun-16 05:59N 51°25' E 002°39'0 0.0
2018-Jun-16 05:29N 51°25' E 002°39'0 0.1
2018-Jun-16 04:59N 51°25' E 002°39'0 0.1
2018-Jun-16 04:29N 51°25' E 002°39'0 0.0
2018-Jun-16 03:59N 51°25' E 002°39'0 0.0
2018-Jun-16 03:29N 51°25' E 002°39'0 0.0
2018-Jun-16 02:56N 51°25' E 002°39'0 0.0
2018-Jun-16 02:29N 51°25' E 002°39'0 0.0
2018-Jun-16 01:59N 51°25' E 002°39'0 0.0
2018-Jun-16 01:08N 51°25' E 002°39'0 0.0
2018-Jun-16 00:50N 51°25' E 002°39'0 0.0
2018-Jun-16 00:29N 51°25' E 002°39'0 0.1
2018-Jun-15 23:59N 51°25' E 002°39'0 0.4
2018-Jun-15 23:29N 51°25' E 002°39'0 0.0
2018-Jun-15 22:59N 51°25' E 002°39'0 0.1
2018-Jun-15 22:29N 51°25' E 002°39'0 0.0
2018-Jun-15 21:59N 51°25' E 002°39'0 0.0
2018-Jun-15 21:29N 51°25' E 002°39'0 0.0
2018-Jun-15 20:53N 51°25' E 002°39'0 0.0
2018-Jun-15 20:29N 51°25' E 002°39'0 0.2
2018-Jun-15 19:47N 51°25' E 002°39'0 0.3
2018-Jun-15 19:29N 51°25' E 002°39'0 0.1
2018-Jun-15 18:59N 51°25' E 002°39'0 0.0
2018-Jun-15 18:29N 51°25' E 002°39'0 0.0
2018-Jun-15 17:53N 51°25' E 002°39'0 0.0
2018-Jun-15 17:29N 51°25' E 002°39'0 0.0
2018-Jun-15 16:59N 51°25' E 002°39'0 0.0
2018-Jun-15 16:29N 51°25' E 002°39'0 0.0
2018-Jun-15 15:59N 51°25' E 002°39'0 0.0
2018-Jun-15 15:29N 51°25' E 002°39'0 0.0
2018-Jun-15 14:59N 51°25' E 002°39'0 0.0
2018-Jun-15 14:29N 51°25' E 002°39'0 0.1
2018-Jun-15 13:59N 51°25' E 002°39'0 0.0
2018-Jun-15 13:29N 51°25' E 002°39'0 0.0
2018-Jun-15 12:59N 51°25' E 002°39'0 0.0
2018-Jun-15 12:29N 51°25' E 002°39'0 0.1
2018-Jun-15 11:59N 51°25' E 002°39'0 0.3
2018-Jun-15 11:29N 51°25' E 002°39'0 0.1
2018-Jun-15 10:53N 51°25' E 002°39'0 0.0
2018-Jun-15 10:29N 51°25' E 002°39'0 0.0
2018-Jun-15 09:59N 51°25' E 002°39'0 0.0
2018-Jun-15 09:29N 51°25' E 002°39'0 0.0
2018-Jun-15 08:59N 51°25' E 002°39'0 0.0
2018-Jun-15 08:29N 51°25' E 002°39'0 0.0
2018-Jun-15 07:59N 51°25' E 002°39'0 0.1
2018-Jun-15 07:29N 51°25' E 002°39'0 0.0
2018-Jun-15 06:59N 51°25' E 002°39'0 0.1
2018-Jun-15 06:20N 51°25' E 002°39'0 0.0
2018-Jun-15 05:56N 51°25' E 002°39'0 0.1
2018-Jun-15 05:29N 51°25' E 002°39'0 0.1
2018-Jun-15 04:59N 51°25' E 002°39'0 0.1
2018-Jun-15 04:29N 51°25' E 002°39'0 0.0
2018-Jun-15 03:53N 51°25' E 002°39'0 0.0
2018-Jun-15 03:29N 51°25' E 002°39'0 0.0
2018-Jun-15 02:59N 51°25' E 002°39'0 0.0
2018-Jun-15 02:29N 51°25' E 002°39'0 0.0
2018-Jun-15 01:59N 51°25' E 002°39'0 0.0
2018-Jun-15 01:29N 51°25' E 002°39'0 0.0
2018-Jun-15 00:59N 51°25' E 002°39'0 0.0
2018-Jun-15 00:29N 51°25' E 002°39'0 0.0
2018-Jun-14 23:59N 51°25' E 002°39'0 0.0
2018-Jun-14 23:29N 51°25' E 002°39'0 0.2
2018-Jun-14 22:59N 51°25' E 002°39'0 0.3
2018-Jun-14 22:29N 51°25' E 002°39'0 0.1
2018-Jun-14 21:59N 51°25' E 002°39'0 0.0
2018-Jun-14 21:29N 51°25' E 002°39'0 0.0
2018-Jun-14 20:56N 51°25' E 002°39'0 0.1
2018-Jun-14 20:29N 51°25' E 002°39'0 0.1
2018-Jun-14 19:59N 51°25' E 002°39'0 0.3
2018-Jun-14 19:29N 51°25' E 002°39'0 0.2
2018-Jun-14 18:50N 51°25' E 002°39'0 0.1
2018-Jun-14 18:23N 51°25' E 002°39'0 0.1
2018-Jun-14 17:44N 51°25' E 002°39'0 0.0
2018-Jun-14 16:35N 51°25' E 002°39'0 0.0
2018-Jun-14 16:05N 51°25' E 002°39'0 0.0
2018-Jun-14 15:44N 51°25' E 002°39'0 0.1
2018-Jun-14 15:23N 51°25' E 002°39'0 0.0
2018-Jun-14 14:53N 51°25' E 002°39'0 0.0
2018-Jun-14 13:32N 51°25' E 002°39'0 0.0
2018-Jun-14 11:50N 51°25' E 002°39'0 0.0
2018-Jun-14 11:17N 51°25' E 002°39'0 0.1
2018-Jun-14 10:44N 51°25' E 002°39'0 0.1
2018-Jun-14 10:26N 51°25' E 002°39'0 0.2
2018-Jun-14 09:53N 51°25' E 002°39'0 0.3
2018-Jun-14 09:23N 51°25' E 002°39'0 0.0
2018-Jun-14 08:50N 51°25' E 002°39'0 0.1
2018-Jun-14 07:53N 51°25' E 002°39'0 0.1
2018-Jun-14 07:26N 51°25' E 002°39'0 0.1
2018-Jun-14 06:56N 51°25' E 002°39'0 0.1
2018-Jun-14 06:26N 51°25' E 002°39'0 0.0
2018-Jun-14 05:59N 51°25' E 002°39'0 0.0
2018-Jun-14 05:29N 51°25' E 002°39'0 0.0
2018-Jun-14 04:59N 51°25' E 002°39'0 0.0
2018-Jun-14 04:29N 51°25' E 002°39'0 0.0
2018-Jun-14 03:59N 51°25' E 002°39'0 0.0
2018-Jun-14 03:29N 51°25' E 002°39'1 1.9
2018-Jun-14 03:00N 51°26' E 002°40'3 5.9
2018-Jun-14 02:30N 51°23' E 002°43'510.0
2018-Jun-14 02:00N 51°23' E 002°51'612.6
2018-Jun-14 01:30N 51°24' E 003°01'612.5
2018-Jun-14 01:00N 51°24' E 003°11'612.4
2018-Jun-14 00:30N 51°24' E 003°21'611.7
2018-Jun-14 00:00N 51°25' E 003°30'510.3
2018-Jun-13 23:30N 51°26' E 003°38'4 7.4
2018-Jun-13 23:00N 51°25' E 003°44'0 0.2
2018-Jun-13 22:30N 51°25' E 003°44'0 0.0
2018-Jun-13 22:00N 51°25' E 003°44'0 0.0
2018-Jun-13 21:30N 51°25' E 003°44'0 0.0
2018-Jun-13 21:00N 51°25' E 003°44'0 0.0
2018-Jun-13 20:30N 51°25' E 003°44'0 0.0
2018-Jun-13 20:00N 51°25' E 003°44'0 0.0
2018-Jun-13 19:30N 51°25' E 003°44'0 0.0
2018-Jun-13 19:00N 51°25' E 003°44'0 0.0
2018-Jun-13 18:30N 51°25' E 003°44'0 0.0
2018-Jun-13 18:00N 51°25' E 003°44'0 0.0
2018-Jun-13 17:30N 51°25' E 003°44'0 0.0
2018-Jun-13 17:00N 51°25' E 003°44'0 0.0
2018-Jun-13 16:30N 51°25' E 003°44'0 0.0
2018-Jun-13 16:00N 51°25' E 003°44'0 0.0
2018-Jun-13 15:30N 51°25' E 003°44'0 0.0
2018-Jun-13 15:00N 51°25' E 003°44'0 0.0
2018-Jun-13 14:30N 51°25' E 003°44'0 0.0
2018-Jun-13 13:57N 51°25' E 003°44'0 0.0
2018-Jun-13 13:30N 51°25' E 003°44'0 0.0
2018-Jun-13 12:51N 51°25' E 003°44'0 0.0
2018-Jun-13 12:27N 51°25' E 003°44'0 0.0
2018-Jun-13 12:00N 51°25' E 003°44'0 0.0
2018-Jun-13 11:24N 51°25' E 003°44'0 0.0
2018-Jun-13 11:00N 51°25' E 003°44'0 0.0
2018-Jun-13 10:30N 51°25' E 003°44'0 0.0
2018-Jun-13 10:00N 51°25' E 003°44'0 0.0
2018-Jun-13 09:30N 51°25' E 003°44'0 0.0
2018-Jun-13 08:57N 51°25' E 003°44'0 0.0
2018-Jun-13 08:30N 51°25' E 003°44'0 0.0
2018-Jun-13 08:00N 51°25' E 003°44'0 0.0
2018-Jun-13 07:30N 51°25' E 003°44'0 0.0
2018-Jun-13 07:00N 51°25' E 003°44'0 0.0
2018-Jun-13 06:27N 51°25' E 003°44'0 0.0
2018-Jun-13 05:57N 51°25' E 003°44'0 0.0
2018-Jun-13 05:30N 51°25' E 003°44'0 0.0
2018-Jun-13 05:00N 51°25' E 003°44'0 0.0
2018-Jun-13 04:27N 51°25' E 003°44'0 0.0
2018-Jun-13 04:00N 51°25' E 003°44'0 0.0
2018-Jun-13 03:30N 51°25' E 003°44'0 0.0
2018-Jun-13 02:57N 51°25' E 003°44'0 0.0
2018-Jun-13 02:30N 51°25' E 003°44'0 0.0
2018-Jun-13 02:00N 51°25' E 003°44'0 0.0
2018-Jun-13 01:30N 51°25' E 003°44'0 0.0
2018-Jun-13 01:00N 51°25' E 003°44'0 0.0
2018-Jun-13 00:30N 51°25' E 003°44'0 0.0
2018-Jun-12 23:57N 51°25' E 003°44'  

Dump ship's entire track history